Main page
METAR-TAF:

METAR-TAF

Airports :

Casino, Australia

latitude: 28-52-39S, longitude: 153-03-07E, elevation: 21 m

Current weather observation

The report was made 44 minutes ago, at 16:00 UTC
Wind 4 kt from the Southwest
Temperature 15°C
Humidity 94%
Pressure 1021 hPa

METAR: YCAS 281600Z AUTO 22004KT //// // ////// 15/14 Q1021

Time: 02:44 (16:44 UTC)


TAF: missing

Weather observations and forecasts of more than 4000 airports (METAR and TAF reports).

The available stations are represented by yellow and red dots on the map.

Hover mouse over dot to see the name of the station.

Then click to see weather observations and forecasts.

To change the map : click on the green buttons with a black cross to zoom in, on the green button with a dash to zoom out, or on the green arrows for adjacent maps.


METAR-TAF: